Langholm, United Kingdom
Current Conditions -  °F | °C
As of 4:50 PM on Saturday 22 Nov 2014 (Local Time) from EGOM Reporting Station
Rain Showers Rain Showers  
Wind Chill: 45°   Ceiling: 5000
Heat Index: 48°   Visibility: 6mi
Dew Point: 46°   Wind: 8mph
Humidity: 93%   Direction: 230°SW
Pressure: 29.83"   Gusts: NA
Location:  55.15°N, 3°W
Report Text: EGOM 221650Z AUTO 23007KT 9000 -SHRA SCT043/// BKN050/// 09/08 Q1010
Loading
Personal Weather Stations






























Interactive Weather Map New forecast layout! Learn more

10-Day Weather Forecast

Advertisements
Track Severe Weather on mobile